Tombarra — MPRD6 — position and weather

sailwx.info

Track history (hours):
 
Tides and Currents Weather Stations Pressure Air Temp Water Temp Dewpoint Dewpoint Depression Visibility Wind Speed Wind Dir Waves Ship Positions

Tombarra

Last reported at 2015-Aug-01 05:15 UTC. Time now 2015-Aug-04 23:57 UTC.
Position N 27°31' W 015°15'.

Length 199 m; draft 10.4 m.

Type: Cargo ship. MMSI: 232971000.

Date/timePositionNaut miles runAvg speedWind from/ knotsBaromVisibWave heightAir tempDewpointWater temp
2015-Aug-01 05:15N 27°31' W 015°15'1318.1
2015-Aug-01 04:33N 27°43' W 015°10'1818.1
2015-Aug-01 03:33N 27°60' W 015°04'1817.5
2015-Aug-01 02:33N 28°16' W 014°57'1817.6
2015-Aug-01 01:33N 28°33' W 014°52'1817.8
2015-Aug-01 00:33N 28°51' W 014°48'1917.6
2015-Jul-31 23:28N 29°09' W 014°43'2317.6
2015-Jul-31 22:10N 29°32' W 014°37'1117.8
2015-Jul-31 21:33N 29°43' W 014°34'1717.4
2015-Jul-31 20:33N 29°59' W 014°30'1717.4
2015-Jul-31 19:33N 30°16' W 014°25'7017.6
2015-Jul-31 15:33N 31°25' W 014°07'  
2015-Jul-28 05:33N 50°28' W 000°02'6 6.0
2015-Jul-28 04:33N 50°30' E 000°07'1312.6
2015-Jul-28 03:33N 50°33' E 000°26'1313.2
2015-Jul-28 02:34N 50°40' E 000°45'1414.0
2015-Jul-28 01:33N 50°48' E 001°03'1413.8
2015-Jul-28 00:33N 50°56' E 001°20'1313.0
2015-Jul-27 23:33N 51°06' E 001°34'1212.3
2015-Jul-27 22:33N 51°15' E 001°48'1212.4
2015-Jul-27 21:33N 51°25' E 001°58'1111.1
2015-Jul-27 20:33N 51°21' E 002°14'3535.2
2015-Jul-27 19:34N 51°22' E 003°11'2 2.2
2015-Jul-27 18:33N 51°20' E 003°13'4 3.8
2015-Jul-27 17:33N 51°23' E 003°09'4 4.3
2015-Jul-27 16:33N 51°20' E 003°13'0 0.4
2015-Jul-27 15:33N 51°20' E 003°13'1 0.8
2015-Jul-27 14:32N 51°19' E 003°14'0 0.0
2015-Jul-27 13:32N 51°19' E 003°14'0 0.0
2015-Jul-27 12:32N 51°19' E 003°14'0 0.0
2015-Jul-27 11:32N 51°19' E 003°14'0 0.0
2015-Jul-27 10:32N 51°19' E 003°14'0 0.0
2015-Jul-27 09:29N 51°19' E 003°14'0 0.0
2015-Jul-27 08:32N 51°19' E 003°14'0 0.0
2015-Jul-27 07:32N 51°19' E 003°14'0 0.0
2015-Jul-27 06:32N 51°19' E 003°14'0 0.0
2015-Jul-27 05:32N 51°19' E 003°14'0 0.0
2015-Jul-27 04:32N 51°19' E 003°14'0 0.0
2015-Jul-27 03:32N 51°19' E 003°14'0 0.0
2015-Jul-27 02:32N 51°19' E 003°14'0 0.0
2015-Jul-27 01:32N 51°19' E 003°14'0 0.0
2015-Jul-27 00:32N 51°19' E 003°14'0 0.0
2015-Jul-26 23:32N 51°19' E 003°14'0 0.0
2015-Jul-26 22:32N 51°19' E 003°14'0 0.0
2015-Jul-26 21:32N 51°19' E 003°14'0 0.0
2015-Jul-26 20:32N 51°19' E 003°14'0 0.0
2015-Jul-26 19:32N 51°19' E 003°14'0 0.0
2015-Jul-26 18:32N 51°19' E 003°14'0 0.0
2015-Jul-26 17:32N 51°19' E 003°14'0 0.0
2015-Jul-26 16:29N 51°19' E 003°14'0 0.0
2015-Jul-26 15:32N 51°19' E 003°14'0 0.0
2015-Jul-26 14:32N 51°19' E 003°14'0 0.0
2015-Jul-26 13:32N 51°19' E 003°14'0 0.0
2015-Jul-26 12:32N 51°19' E 003°14'0 0.0
2015-Jul-26 11:32N 51°19' E 003°14'0 0.0
2015-Jul-26 10:32N 51°19' E 003°14'0 0.0
2015-Jul-26 09:32N 51°19' E 003°14'0 0.0
2015-Jul-26 08:32N 51°19' E 003°14'0 0.0
2015-Jul-26 07:32N 51°19' E 003°14'0 0.0
2015-Jul-26 06:32N 51°19' E 003°14'0 0.0
2015-Jul-26 05:32N 51°19' E 003°14'0 0.0
2015-Jul-26 04:26N 51°19' E 003°14'0 0.0
2015-Jul-26 03:32N 51°19' E 003°14'0 0.0
2015-Jul-26 02:32N 51°19' E 003°14'0 0.0
2015-Jul-26 01:32N 51°19' E 003°14'0 0.0
2015-Jul-26 00:32N 51°19' E 003°14'0 0.0
2015-Jul-25 23:29N 51°19' E 003°14'0 0.0
2015-Jul-25 22:29N 51°19' E 003°14'0 0.0
2015-Jul-25 21:32N 51°19' E 003°14'0 0.0
2015-Jul-25 20:32N 51°19' E 003°14'0 0.0
2015-Jul-25 19:32N 51°19' E 003°14'0 0.0
2015-Jul-25 18:32N 51°19' E 003°14'0 0.0
2015-Jul-25 17:32N 51°19' E 003°14'0 0.0
2015-Jul-25 16:32N 51°19' E 003°14'0 0.0
2015-Jul-25 15:29N 51°19' E 003°14'0 0.0
2015-Jul-25 14:32N 51°19' E 003°14'0 0.0
2015-Jul-25 13:32N 51°19' E 003°14'0 0.0
2015-Jul-25 12:29N 51°19' E 003°14'0 0.0
2015-Jul-25 11:32N 51°19' E 003°14'0 0.0
2015-Jul-25 10:29N 51°19' E 003°14'0 0.0
2015-Jul-25 09:32N 51°19' E 003°14'0 0.0
2015-Jul-25 08:32N 51°19' E 003°14'0 0.0
2015-Jul-25 07:32N 51°19' E 003°14'0 0.0
2015-Jul-25 06:32N 51°19' E 003°14'0 0.0
2015-Jul-25 05:32N 51°19' E 003°14'0 0.0
2015-Jul-25 04:32N 51°19' E 003°14'0 0.0
2015-Jul-25 03:32N 51°19' E 003°14'0 0.0
2015-Jul-25 02:32N 51°19' E 003°14'0 0.0
2015-Jul-25 01:32N 51°19' E 003°14'0 0.0
2015-Jul-25 00:33N 51°19' E 003°14'0 0.0
2015-Jul-24 23:32N 51°19' E 003°14'0 0.0
2015-Jul-24 22:29N 51°19' E 003°14'0 0.0
2015-Jul-24 21:32N 51°19' E 003°14'0 0.3
2015-Jul-24 20:33N 51°19' E 003°13'1 1.3
2015-Jul-24 19:33N 51°20' E 003°13'1110.7
2015-Jul-24 18:34N 51°23' E 002°56'1010.0
2015-Jul-24 17:34N 51°27' E 002°42'1111.0
2015-Jul-24 16:33N 51°38' E 002°43'1010.1
2015-Jul-24 15:34N 51°48' E 002°43'8 8.0
2015-Jul-24 14:34N 51°56' E 002°43'1716.9
2015-Jul-24 13:33N 52°10' E 002°59'1716.9
2015-Jul-24 12:33N 52°24' E 003°15'1616.3
2015-Jul-24 11:34N 52°37' E 003°31'1716.6
2015-Jul-24 10:33N 52°49' E 003°49'1616.4
2015-Jul-24 09:34N 53°01' E 004°08'1616.0
2015-Jul-24 08:33N 53°13' E 004°26'1616.3
2015-Jul-24 07:33N 53°28' E 004°37'1817.6
2015-Jul-24 06:34N 53°35' E 005°04'1918.4
2015-Jul-24 05:32N 53°41' E 005°34'1717.7
2015-Jul-24 04:33N 53°47' E 006°02'2516.9
2015-Jul-24 03:06N 53°53' E 006°42'1616.1
2015-Jul-24 02:06N 53°57' E 007°09'915.9
2015-Jul-24 01:34N 53°58' E 007°23'1313.4
2015-Jul-24 00:34N 53°54' E 007°45'1312.9
2015-Jul-23 23:33N 53°50' E 008°06'1716.6
2015-Jul-23 22:33N 53°38' E 008°26'6 5.6
2015-Jul-23 21:31N 53°34' E 008°33'0 0.5
2015-Jul-23 20:33N 53°35' E 008°33'0 0.0
2015-Jul-23 19:33N 53°35' E 008°33'0 0.0
2015-Jul-23 18:33N 53°35' E 008°33'0 0.0
2015-Jul-23 17:33N 53°35' E 008°33'0 0.0
2015-Jul-23 16:33N 53°35' E 008°33'0 0.0
2015-Jul-23 15:33N 53°35' E 008°33'0 0.0
2015-Jul-23 14:33N 53°35' E 008°33'0 0.0
2015-Jul-23 13:33N 53°35' E 008°33'0 0.0
2015-Jul-23 12:33N 53°35' E 008°33'0 0.0
2015-Jul-23 11:33N 53°35' E 008°33'0 0.0
2015-Jul-23 10:33N 53°35' E 008°33'0 0.0
2015-Jul-23 09:33N 53°35' E 008°33'0 0.0
2015-Jul-23 08:33N 53°35' E 008°33'0 0.0
2015-Jul-23 07:33N 53°35' E 008°33'0 0.0
2015-Jul-23 06:33N 53°35' E 008°33'0 0.0
2015-Jul-23 05:33N 53°35' E 008°33'0 0.0
2015-Jul-23 04:33N 53°35' E 008°33'0 0.0
2015-Jul-23 03:33N 53°35' E 008°33'0 0.0
2015-Jul-23 02:33N 53°35' E 008°33'0 0.0
2015-Jul-23 01:33N 53°35' E 008°33'0 0.0
2015-Jul-23 00:33N 53°35' E 008°33'0 0.0
2015-Jul-22 23:33N 53°35' E 008°33'0 0.0
2015-Jul-22 22:33N 53°35' E 008°33'0 0.5
2015-Jul-22 21:33N 53°34' E 008°33'0 0.0
2015-Jul-22 20:33N 53°34' E 008°33'4 4.5
2015-Jul-22 19:33N 53°37' E 008°28'1413.9
2015-Jul-22 18:33N 53°46' E 008°10'1413.7
2015-Jul-22 17:34N 53°52' E 007°49'10 9.8
2015-Jul-22 16:33N 53°55' E 007°33'1413.7
2015-Jul-22 15:33N 53°52' E 007°10'1514.2
2015-Jul-22 14:30N 53°48' E 006°46'1312.9
2015-Jul-22 13:32N 53°46' E 006°25'3216.0
2015-Jul-22 11:33N 53°35' E 005°34'1616.4
2015-Jul-22 10:33N 53°30' E 005°08'1717.3
2015-Jul-22 09:33N 53°23' E 004°42'1313.4
2015-Jul-22 08:33N 53°11' E 004°31'9 9.1
2015-Jul-22 07:33N 53°03' E 004°24'1110.8
2015-Jul-22 06:33N 52°53' E 004°17'1817.6
2015-Jul-22 05:33N 52°39' E 003°60'  
Track history (hours):
 
Tides and Currents Weather Stations Pressure Air Temp Water Temp Dewpoint Dewpoint Depression Visibility Wind Speed Wind Dir Waves Ship Positions

Tombarra

Last reported at 2015-Aug-01 05:15 UTC. Time now 2015-Aug-04 23:57 UTC.
Position N 27°31' W 015°15'.

Length 199 m; draft 10.4 m.

Type: Cargo ship. MMSI: 232971000.

Date/timePositionNaut miles runAvg speedWind from/ knotsBaromVisibWave heightAir tempDewpointWater temp
2015-Aug-01 05:15N 27°31' W 015°15'1318.1
2015-Aug-01 04:33N 27°43' W 015°10'1818.1
2015-Aug-01 03:33N 27°60' W 015°04'1817.5
2015-Aug-01 02:33N 28°16' W 014°57'1817.6
2015-Aug-01 01:33N 28°33' W 014°52'1817.8
2015-Aug-01 00:33N 28°51' W 014°48'1917.6
2015-Jul-31 23:28N 29°09' W 014°43'2317.6
2015-Jul-31 22:10N 29°32' W 014°37'1117.8
2015-Jul-31 21:33N 29°43' W 014°34'1717.4
2015-Jul-31 20:33N 29°59' W 014°30'1717.4
2015-Jul-31 19:33N 30°16' W 014°25'7017.6
2015-Jul-31 15:33N 31°25' W 014°07'  
2015-Jul-28 05:33N 50°28' W 000°02'6 6.0
2015-Jul-28 04:33N 50°30' E 000°07'1312.6
2015-Jul-28 03:33N 50°33' E 000°26'1313.2
2015-Jul-28 02:34N 50°40' E 000°45'1414.0
2015-Jul-28 01:33N 50°48' E 001°03'1413.8
2015-Jul-28 00:33N 50°56' E 001°20'1313.0
2015-Jul-27 23:33N 51°06' E 001°34'1212.3
2015-Jul-27 22:33N 51°15' E 001°48'1212.4
2015-Jul-27 21:33N 51°25' E 001°58'1111.1
2015-Jul-27 20:33N 51°21' E 002°14'3535.2
2015-Jul-27 19:34N 51°22' E 003°11'2 2.2
2015-Jul-27 18:33N 51°20' E 003°13'4 3.8
2015-Jul-27 17:33N 51°23' E 003°09'4 4.3
2015-Jul-27 16:33N 51°20' E 003°13'0 0.4
2015-Jul-27 15:33N 51°20' E 003°13'1 0.8
2015-Jul-27 14:32N 51°19' E 003°14'0 0.0
2015-Jul-27 13:32N 51°19' E 003°14'0 0.0
2015-Jul-27 12:32N 51°19' E 003°14'0 0.0
2015-Jul-27 11:32N 51°19' E 003°14'0 0.0
2015-Jul-27 10:32N 51°19' E 003°14'0 0.0
2015-Jul-27 09:29N 51°19' E 003°14'0 0.0
2015-Jul-27 08:32N 51°19' E 003°14'0 0.0
2015-Jul-27 07:32N 51°19' E 003°14'0 0.0
2015-Jul-27 06:32N 51°19' E 003°14'0 0.0
2015-Jul-27 05:32N 51°19' E 003°14'0 0.0
2015-Jul-27 04:32N 51°19' E 003°14'0 0.0
2015-Jul-27 03:32N 51°19' E 003°14'0 0.0
2015-Jul-27 02:32N 51°19' E 003°14'0 0.0
2015-Jul-27 01:32N 51°19' E 003°14'0 0.0
2015-Jul-27 00:32N 51°19' E 003°14'0 0.0
2015-Jul-26 23:32N 51°19' E 003°14'0 0.0
2015-Jul-26 22:32N 51°19' E 003°14'0 0.0
2015-Jul-26 21:32N 51°19' E 003°14'0 0.0
2015-Jul-26 20:32N 51°19' E 003°14'0 0.0
2015-Jul-26 19:32N 51°19' E 003°14'0 0.0
2015-Jul-26 18:32N 51°19' E 003°14'0 0.0
2015-Jul-26 17:32N 51°19' E 003°14'0 0.0
2015-Jul-26 16:29N 51°19' E 003°14'0 0.0
2015-Jul-26 15:32N 51°19' E 003°14'0 0.0
2015-Jul-26 14:32N 51°19' E 003°14'0 0.0
2015-Jul-26 13:32N 51°19' E 003°14'0 0.0
2015-Jul-26 12:32N 51°19' E 003°14'0 0.0
2015-Jul-26 11:32N 51°19' E 003°14'0 0.0
2015-Jul-26 10:32N 51°19' E 003°14'0 0.0
2015-Jul-26 09:32N 51°19' E 003°14'0 0.0
2015-Jul-26 08:32N 51°19' E 003°14'0 0.0
2015-Jul-26 07:32N 51°19' E 003°14'0 0.0
2015-Jul-26 06:32N 51°19' E 003°14'0 0.0
2015-Jul-26 05:32N 51°19' E 003°14'0 0.0
2015-Jul-26 04:26N 51°19' E 003°14'0 0.0
2015-Jul-26 03:32N 51°19' E 003°14'0 0.0
2015-Jul-26 02:32N 51°19' E 003°14'0 0.0
2015-Jul-26 01:32N 51°19' E 003°14'0 0.0
2015-Jul-26 00:32N 51°19' E 003°14'0 0.0
2015-Jul-25 23:29N 51°19' E 003°14'0 0.0
2015-Jul-25 22:29N 51°19' E 003°14'0 0.0
2015-Jul-25 21:32N 51°19' E 003°14'0 0.0
2015-Jul-25 20:32N 51°19' E 003°14'0 0.0
2015-Jul-25 19:32N 51°19' E 003°14'0 0.0
2015-Jul-25 18:32N 51°19' E 003°14'0 0.0
2015-Jul-25 17:32N 51°19' E 003°14'0 0.0
2015-Jul-25 16:32N 51°19' E 003°14'0 0.0
2015-Jul-25 15:29N 51°19' E 003°14'0 0.0
2015-Jul-25 14:32N 51°19' E 003°14'0 0.0
2015-Jul-25 13:32N 51°19' E 003°14'0 0.0
2015-Jul-25 12:29N 51°19' E 003°14'0 0.0
2015-Jul-25 11:32N 51°19' E 003°14'0 0.0
2015-Jul-25 10:29N 51°19' E 003°14'0 0.0
2015-Jul-25 09:32N 51°19' E 003°14'0 0.0
2015-Jul-25 08:32N 51°19' E 003°14'0 0.0
2015-Jul-25 07:32N 51°19' E 003°14'0 0.0
2015-Jul-25 06:32N 51°19' E 003°14'0 0.0
2015-Jul-25 05:32N 51°19' E 003°14'0 0.0
2015-Jul-25 04:32N 51°19' E 003°14'0 0.0
2015-Jul-25 03:32N 51°19' E 003°14'0 0.0
2015-Jul-25 02:32N 51°19' E 003°14'0 0.0
2015-Jul-25 01:32N 51°19' E 003°14'0 0.0
2015-Jul-25 00:33N 51°19' E 003°14'0 0.0
2015-Jul-24 23:32N 51°19' E 003°14'0 0.0
2015-Jul-24 22:29N 51°19' E 003°14'0 0.0
2015-Jul-24 21:32N 51°19' E 003°14'0 0.3
2015-Jul-24 20:33N 51°19' E 003°13'1 1.3
2015-Jul-24 19:33N 51°20' E 003°13'1110.7
2015-Jul-24 18:34N 51°23' E 002°56'1010.0
2015-Jul-24 17:34N 51°27' E 002°42'1111.0
2015-Jul-24 16:33N 51°38' E 002°43'1010.1
2015-Jul-24 15:34N 51°48' E 002°43'8 8.0
2015-Jul-24 14:34N 51°56' E 002°43'1716.9
2015-Jul-24 13:33N 52°10' E 002°59'1716.9
2015-Jul-24 12:33N 52°24' E 003°15'1616.3
2015-Jul-24 11:34N 52°37' E 003°31'1716.6
2015-Jul-24 10:33N 52°49' E 003°49'1616.4
2015-Jul-24 09:34N 53°01' E 004°08'1616.0
2015-Jul-24 08:33N 53°13' E 004°26'1616.3
2015-Jul-24 07:33N 53°28' E 004°37'1817.6
2015-Jul-24 06:34N 53°35' E 005°04'1918.4
2015-Jul-24 05:32N 53°41' E 005°34'1717.7
2015-Jul-24 04:33N 53°47' E 006°02'2516.9
2015-Jul-24 03:06N 53°53' E 006°42'1616.1
2015-Jul-24 02:06N 53°57' E 007°09'915.9
2015-Jul-24 01:34N 53°58' E 007°23'1313.4
2015-Jul-24 00:34N 53°54' E 007°45'1312.9
2015-Jul-23 23:33N 53°50' E 008°06'1716.6
2015-Jul-23 22:33N 53°38' E 008°26'6 5.6
2015-Jul-23 21:31N 53°34' E 008°33'0 0.5
2015-Jul-23 20:33N 53°35' E 008°33'0 0.0
2015-Jul-23 19:33N 53°35' E 008°33'0 0.0
2015-Jul-23 18:33N 53°35' E 008°33'0 0.0
2015-Jul-23 17:33N 53°35' E 008°33'0 0.0
2015-Jul-23 16:33N 53°35' E 008°33'0 0.0
2015-Jul-23 15:33N 53°35' E 008°33'0 0.0
2015-Jul-23 14:33N 53°35' E 008°33'0 0.0
2015-Jul-23 13:33N 53°35' E 008°33'0 0.0
2015-Jul-23 12:33N 53°35' E 008°33'0 0.0
2015-Jul-23 11:33N 53°35' E 008°33'0 0.0
2015-Jul-23 10:33N 53°35' E 008°33'0 0.0
2015-Jul-23 09:33N 53°35' E 008°33'0 0.0
2015-Jul-23 08:33N 53°35' E 008°33'0 0.0
2015-Jul-23 07:33N 53°35' E 008°33'0 0.0
2015-Jul-23 06:33N 53°35' E 008°33'0 0.0
2015-Jul-23 05:33N 53°35' E 008°33'0 0.0
2015-Jul-23 04:33N 53°35' E 008°33'0 0.0
2015-Jul-23 03:33N 53°35' E 008°33'0 0.0
2015-Jul-23 02:33N 53°35' E 008°33'0 0.0
2015-Jul-23 01:33N 53°35' E 008°33'0 0.0
2015-Jul-23 00:33N 53°35' E 008°33'0 0.0
2015-Jul-22 23:33N 53°35' E 008°33'0 0.0
2015-Jul-22 22:33N 53°35' E 008°33'0 0.5
2015-Jul-22 21:33N 53°34' E 008°33'0 0.0
2015-Jul-22 20:33N 53°34' E 008°33'4 4.5
2015-Jul-22 19:33N 53°37' E 008°28'1413.9
2015-Jul-22 18:33N 53°46' E 008°10'1413.7
2015-Jul-22 17:34N 53°52' E 007°49'10 9.8
2015-Jul-22 16:33N 53°55' E 007°33'1413.7
2015-Jul-22 15:33N 53°52' E 007°10'1514.2
2015-Jul-22 14:30N 53°48' E 006°46'1312.9
2015-Jul-22 13:32N 53°46' E 006°25'3216.0
2015-Jul-22 11:33N 53°35' E 005°34'1616.4
2015-Jul-22 10:33N 53°30' E 005°08'1717.3
2015-Jul-22 09:33N 53°23' E 004°42'1313.4
2015-Jul-22 08:33N 53°11' E 004°31'9 9.1
2015-Jul-22 07:33N 53°03' E 004°24'1110.8
2015-Jul-22 06:33N 52°53' E 004°17'1817.6
2015-Jul-22 05:33N 52°39' E 003°60'  

Dump ship's entire track history